Lambertville, Michigan
Current Conditions -  °F | °C
As of 4:54 PM on Friday 24 Oct 2014 (Local Time) from KDUH Reporting Station
Overcast Overcast  
Wind Chill: 61°   Ceiling: 4100
Heat Index: 61°   Visibility: 10mi
Dew Point: 45°   Wind: 5mph
Humidity: 55%   Direction: 270°W
Pressure: 30"   Gusts: NA
Location:  41.76°N, 83.63°W
Report Text: KDUH 242054Z AUTO 27004KT 10SM OVC041 16/07 A3000 RMK AO2
Loading
Personal Weather Stations






























Interactive Weather Map
Tropical Storm Tracking
New forecast layout! Learn more

10-Day Weather Forecast

Advertisements
Track Severe Weather on mobile